sensor_id;sensor_type;location;lat;lon;timestamp;P1;durP1;ratioP1;P2;durP2;ratioP2
29254;SDS011;16277;48.890;2.306;2023-06-14T00:01:20;5.23;;;4.97;;
29254;SDS011;16277;48.890;2.306;2023-06-14T00:16:25;5.47;;;5.27;;
29254;SDS011;16277;48.890;2.306;2023-06-14T00:31:30;6.87;;;4.83;;
29254;SDS011;16277;48.890;2.306;2023-06-14T00:46:34;6.13;;;4.90;;
29254;SDS011;16277;48.890;2.306;2023-06-14T01:01:39;10.00;;;4.97;;
29254;SDS011;16277;48.890;2.306;2023-06-14T01:16:44;5.57;;;5.37;;
29254;SDS011;16277;48.890;2.306;2023-06-14T01:31:49;7.93;;;7.03;;
29254;SDS011;16277;48.890;2.306;2023-06-14T01:46:54;7.07;;;6.77;;
29254;SDS011;16277;48.890;2.306;2023-06-14T02:02:00;6.97;;;6.67;;
29254;SDS011;16277;48.890;2.306;2023-06-14T02:17:07;7.30;;;6.53;;
29254;SDS011;16277;48.890;2.306;2023-06-14T02:32:12;9.27;;;6.80;;
29254;SDS011;16277;48.890;2.306;2023-06-14T02:47:16;10.43;;;5.40;;
29254;SDS011;16277;48.890;2.306;2023-06-14T03:02:21;11.33;;;5.07;;
29254;SDS011;16277;48.890;2.306;2023-06-14T03:17:26;12.17;;;4.67;;
29254;SDS011;16277;48.890;2.306;2023-06-14T03:32:33;5.73;;;5.53;;
29254;SDS011;16277;48.890;2.306;2023-06-14T03:47:39;13.03;;;5.30;;
29254;SDS011;16277;48.890;2.306;2023-06-14T04:02:44;12.97;;;6.07;;
29254;SDS011;16277;48.890;2.306;2023-06-14T04:17:49;6.20;;;5.57;;
29254;SDS011;16277;48.890;2.306;2023-06-14T04:32:56;11.97;;;6.90;;
29254;SDS011;16277;48.890;2.306;2023-06-14T04:48:02;7.63;;;6.07;;
29254;SDS011;16277;48.890;2.306;2023-06-14T05:03:07;15.40;;;6.70;;
29254;SDS011;16277;48.890;2.306;2023-06-14T05:18:12;22.90;;;6.33;;
29254;SDS011;16277;48.890;2.306;2023-06-14T05:33:17;14.53;;;7.50;;
29254;SDS011;16277;48.890;2.306;2023-06-14T05:48:22;13.73;;;6.83;;
29254;SDS011;16277;48.890;2.306;2023-06-14T06:03:28;16.27;;;6.23;;
29254;SDS011;16277;48.890;2.306;2023-06-14T06:18:33;11.93;;;5.97;;
29254;SDS011;16277;48.890;2.306;2023-06-14T06:33:37;6.43;;;5.83;;
29254;SDS011;16277;48.890;2.306;2023-06-14T06:48:43;6.50;;;5.53;;
29254;SDS011;16277;48.890;2.306;2023-06-14T07:03:48;7.23;;;5.93;;
29254;SDS011;16277;48.890;2.306;2023-06-14T07:18:52;6.53;;;5.60;;
29254;SDS011;16277;48.890;2.306;2023-06-14T07:33:56;12.63;;;6.50;;
29254;SDS011;16277;48.890;2.306;2023-06-14T07:49:01;13.37;;;5.27;;
29254;SDS011;16277;48.890;2.306;2023-06-14T08:04:06;52.70;;;10.23;;
29254;SDS011;16277;48.890;2.306;2023-06-14T08:19:11;28.73;;;6.27;;
29254;SDS011;16277;48.890;2.306;2023-06-14T08:34:15;12.60;;;6.83;;
29254;SDS011;16277;48.890;2.306;2023-06-14T08:49:20;12.47;;;6.20;;
29254;SDS011;16277;48.890;2.306;2023-06-14T09:04:26;5.80;;;5.23;;
29254;SDS011;16277;48.890;2.306;2023-06-14T09:19:32;6.73;;;5.17;;
29254;SDS011;16277;48.890;2.306;2023-06-14T09:34:38;4.20;;;4.03;;
29254;SDS011;16277;48.890;2.306;2023-06-14T09:49:43;9.73;;;3.80;;
29254;SDS011;16277;48.890;2.306;2023-06-14T10:04:50;6.50;;;4.20;;
29254;SDS011;16277;48.890;2.306;2023-06-14T10:20:06;49.07;;;7.30;;
29254;SDS011;16277;48.890;2.306;2023-06-14T10:35:21;3.97;;;3.80;;
29254;SDS011;16277;48.890;2.306;2023-06-14T10:50:28;3.33;;;3.23;;
29254;SDS011;16277;48.890;2.306;2023-06-14T11:05:35;3.97;;;3.73;;
29254;SDS011;16277;48.890;2.306;2023-06-14T11:20:53;9.93;;;3.90;;
29254;SDS011;16277;48.890;2.306;2023-06-14T11:35:57;5.90;;;4.30;;
29254;SDS011;16277;48.890;2.306;2023-06-14T11:51:02;8.03;;;4.73;;
29254;SDS011;16277;48.890;2.306;2023-06-14T12:06:07;65.33;;;11.03;;
29254;SDS011;16277;48.890;2.306;2023-06-14T12:21:12;9.07;;;4.57;;
29254;SDS011;16277;48.890;2.306;2023-06-14T12:36:18;6.33;;;4.57;;
29254;SDS011;16277;48.890;2.306;2023-06-14T12:51:23;5.07;;;4.40;;
29254;SDS011;16277;48.890;2.306;2023-06-14T13:06:28;6.13;;;3.60;;
29254;SDS011;16277;48.890;2.306;2023-06-14T13:21:34;3.40;;;3.20;;
29254;SDS011;16277;48.890;2.306;2023-06-14T13:36:38;3.03;;;2.93;;
29254;SDS011;16277;48.890;2.306;2023-06-14T13:51:43;3.40;;;3.30;;
29254;SDS011;16277;48.890;2.306;2023-06-14T14:06:47;8.23;;;2.67;;
29254;SDS011;16277;48.890;2.306;2023-06-14T14:21:52;3.80;;;2.20;;
29254;SDS011;16277;48.890;2.306;2023-06-14T14:36:57;9.63;;;2.30;;
29254;SDS011;16277;48.890;2.306;2023-06-14T14:52:01;2.60;;;2.50;;
29254;SDS011;16277;48.890;2.306;2023-06-14T15:07:24;1.93;;;1.83;;
29254;SDS011;16277;48.890;2.306;2023-06-14T15:22:29;3.23;;;2.60;;
29254;SDS011;16277;48.890;2.306;2023-06-14T15:37:34;2.30;;;2.20;;
29254;SDS011;16277;48.890;2.306;2023-06-14T15:52:38;3.80;;;3.47;;
29254;SDS011;16277;48.890;2.306;2023-06-14T16:07:43;9.83;;;3.00;;
29254;SDS011;16277;48.890;2.306;2023-06-14T16:22:47;4.90;;;3.30;;
29254;SDS011;16277;48.890;2.306;2023-06-14T16:37:52;11.07;;;2.80;;
29254;SDS011;16277;48.890;2.306;2023-06-14T16:52:56;4.37;;;2.93;;
29254;SDS011;16277;48.890;2.306;2023-06-14T17:08:01;17.97;;;3.90;;
29254;SDS011;16277;48.890;2.306;2023-06-14T17:23:06;2.87;;;2.77;;
29254;SDS011;16277;48.890;2.306;2023-06-14T17:38:10;2.40;;;2.30;;
29254;SDS011;16277;48.890;2.306;2023-06-14T17:53:15;3.17;;;3.07;;
29254;SDS011;16277;48.890;2.306;2023-06-14T18:08:19;3.13;;;2.93;;
29254;SDS011;16277;48.890;2.306;2023-06-14T18:23:24;4.93;;;4.03;;
29254;SDS011;16277;48.890;2.306;2023-06-14T18:38:29;6.20;;;4.70;;
29254;SDS011;16277;48.890;2.306;2023-06-14T18:53:33;3.70;;;3.50;;
29254;SDS011;16277;48.890;2.306;2023-06-14T19:08:39;3.70;;;3.60;;
29254;SDS011;16277;48.890;2.306;2023-06-14T19:23:44;9.43;;;3.70;;
29254;SDS011;16277;48.890;2.306;2023-06-14T19:38:49;3.80;;;3.60;;
29254;SDS011;16277;48.890;2.306;2023-06-14T19:53:54;5.27;;;4.03;;
29254;SDS011;16277;48.890;2.306;2023-06-14T20:08:58;4.53;;;4.27;;
29254;SDS011;16277;48.890;2.306;2023-06-14T20:24:04;8.97;;;5.03;;
29254;SDS011;16277;48.890;2.306;2023-06-14T20:39:08;9.00;;;5.00;;
29254;SDS011;16277;48.890;2.306;2023-06-14T20:54:13;6.83;;;4.70;;
29254;SDS011;16277;48.890;2.306;2023-06-14T21:09:17;9.33;;;4.93;;
29254;SDS011;16277;48.890;2.306;2023-06-14T21:24:22;7.37;;;6.67;;
29254;SDS011;16277;48.890;2.306;2023-06-14T21:39:26;5.73;;;5.43;;
29254;SDS011;16277;48.890;2.306;2023-06-14T21:54:31;6.20;;;5.93;;
29254;SDS011;16277;48.890;2.306;2023-06-14T22:09:36;8.30;;;6.73;;
29254;SDS011;16277;48.890;2.306;2023-06-14T22:24:40;6.13;;;5.73;;
29254;SDS011;16277;48.890;2.306;2023-06-14T22:39:45;5.43;;;5.23;;
29254;SDS011;16277;48.890;2.306;2023-06-14T22:54:50;7.67;;;6.20;;
29254;SDS011;16277;48.890;2.306;2023-06-14T23:09:54;10.20;;;7.60;;
29254;SDS011;16277;48.890;2.306;2023-06-14T23:25:00;7.97;;;7.43;;
29254;SDS011;16277;48.890;2.306;2023-06-14T23:40:06;7.03;;;6.53;;
29254;SDS011;16277;48.890;2.306;2023-06-14T23:55:13;7.20;;;6.53;;
